Time;durP1;ratioP1;P1;durP2;ratioP2;P2;SDS_P1;SDS_P2;PMS_P1;PMS_P2;Temp;Humidity;BMP_temperature;BMP_pressure;BME280_temperature;BME280_humidity;BME280_pressure;Samples;Min_cycle;Max_cycle;Signal;HPM_P1;HPM_P2
2024/03/29 00:02:13;;;;;;;1999.90;999.90;;;11.90;99.90;;;;;;5032995;28;20026;-68
2024/03/29 00:04:38;;;;;;;1999.90;999.90;;;11.90;99.90;;;;;;5033307;28;20087;-68
2024/03/29 00:07:04;;;;;;;1999.90;999.90;;;11.90;99.90;;;;;;5032870;28;20033;-68
2024/03/29 00:09:30;;;;;;;1999.90;999.90;;;12.00;99.90;;;;;;5032905;28;20032;-73
2024/03/29 00:11:55;;;;;;;1999.90;999.90;;;12.00;99.90;;;;;;5033188;28;20021;-68
2024/03/29 00:14:21;;;;;;;1999.90;999.90;;;12.00;99.90;;;;;;5032715;28;20400;-68
2024/03/29 00:16:46;;;;;;;1999.90;999.90;;;12.10;99.90;;;;;;5032885;28;20113;-68
2024/03/29 00:19:12;;;;;;;1999.90;999.90;;;12.20;99.90;;;;;;5032548;28;20397;-68
2024/03/29 00:21:38;;;;;;;1999.90;999.90;;;12.30;99.90;;;;;;5032238;28;20029;-74
2024/03/29 00:24:03;;;;;;;1999.90;999.90;;;12.40;99.90;;;;;;5032527;28;20032;-68
2024/03/29 00:26:29;;;;;;;1999.90;999.90;;;12.50;99.90;;;;;;5032561;28;20111;-68
2024/03/29 00:28:55;;;;;;;1999.90;999.90;;;12.50;99.90;;;;;;5032651;28;20018;-68
2024/03/29 00:31:20;;;;;;;1999.90;999.90;;;12.70;99.90;;;;;;5033028;28;20022;-68
2024/03/29 00:33:46;;;;;;;1999.90;999.90;;;12.70;99.90;;;;;;5032557;28;20022;-68
2024/03/29 00:36:12;;;;;;;1999.90;999.90;;;12.80;99.90;;;;;;5032827;28;20049;-67
2024/03/29 00:38:37;;;;;;;1999.90;999.90;;;13.00;99.90;;;;;;5032248;28;20503;-68
2024/03/29 00:41:03;;;;;;;1999.90;999.90;;;13.00;99.90;;;;;;5032814;28;20025;-67
2024/03/29 00:43:29;;;;;;;1999.90;999.90;;;13.10;99.90;;;;;;5032882;28;20056;-68
2024/03/29 00:45:54;;;;;;;1999.90;999.90;;;13.20;99.90;;;;;;5032356;28;20033;-68
2024/03/29 00:48:20;;;;;;;1999.90;999.90;;;13.20;99.90;;;;;;5032495;28;20036;-68
2024/03/29 00:50:46;;;;;;;1999.90;999.90;;;13.20;99.90;;;;;;5032521;28;20485;-74
2024/03/29 00:53:12;;;;;;;1999.90;999.90;;;13.30;99.90;;;;;;5032455;28;20033;-68
2024/03/29 00:55:37;;;;;;;1999.90;999.90;;;13.30;99.90;;;;;;5032365;28;20037;-74
2024/03/29 00:58:03;;;;;;;1999.90;999.90;;;13.30;99.90;;;;;;5032448;28;20018;-68
2024/03/29 01:00:29;;;;;;;1999.90;999.90;;;13.30;99.90;;;;;;5031309;28;20021;-74
2024/03/29 01:02:55;;;;;;;1999.90;999.90;;;13.30;99.90;;;;;;5032573;28;20068;-67
2024/03/29 01:05:20;;;;;;;1999.90;999.90;;;13.20;99.90;;;;;;5032787;28;20037;-68
2024/03/29 01:07:46;;;;;;;1999.90;999.90;;;13.10;99.90;;;;;;5032403;28;20053;-68
2024/03/29 01:10:11;;;;;;;1999.90;999.90;;;13.00;99.90;;;;;;5032453;28;20061;-68
2024/03/29 01:12:39;;;;;;;1999.90;999.90;;;12.90;99.90;;;;;;5032546;28;20033;-74
2024/03/29 01:15:05;;;;;;;1999.90;999.90;;;12.80;99.90;;;;;;5032411;28;20029;-68
2024/03/29 01:17:31;;;;;;;1999.90;999.90;;;12.70;99.90;;;;;;5032223;28;20080;-68
2024/03/29 01:19:56;;;;;;;1999.90;999.90;;;12.70;99.90;;;;;;5032309;28;20028;-68
2024/03/29 01:22:22;;;;;;;1999.90;999.90;;;12.60;99.90;;;;;;5031837;28;20061;-68
2024/03/29 01:24:48;;;;;;;1999.90;999.90;;;12.60;99.90;;;;;;5032134;28;20432;-68
2024/03/29 01:27:13;;;;;;;1999.90;999.90;;;12.50;99.90;;;;;;5032369;28;20034;-68
2024/03/29 01:29:39;;;;;;;1999.90;999.90;;;12.50;99.90;;;;;;5032171;28;20040;-68
2024/03/29 01:32:06;;;;;;;1999.90;999.90;;;12.40;99.90;;;;;;5032494;28;20025;-68
2024/03/29 01:34:31;;;;;;;1999.90;999.90;;;12.40;99.90;;;;;;5031480;28;20484;-74
2024/03/29 01:36:57;;;;;;;1999.90;999.90;;;12.30;99.90;;;;;;5031791;28;20028;-68
2024/03/29 01:39:28;;;;;;;1999.90;999.90;;;12.20;99.90;;;;;;5032268;28;20026;-68
2024/03/29 01:41:54;;;;;;;1999.90;999.90;;;12.10;99.90;;;;;;5032292;28;20499;-68
2024/03/29 01:44:20;;;;;;;1999.90;999.90;;;12.10;99.90;;;;;;5032160;28;20030;-68
2024/03/29 01:46:47;;;;;;;1999.90;999.90;;;12.10;99.90;;;;;;5032140;28;20029;-68
2024/03/29 01:49:13;;;;;;;1999.90;999.90;;;12.00;99.90;;;;;;5031951;28;20022;-68
2024/03/29 01:51:40;;;;;;;1999.90;999.90;;;12.00;99.90;;;;;;5035029;28;20464;-68
2024/03/29 01:54:08;;;;;;;1999.90;999.90;;;12.00;99.90;;;;;;5035696;28;20048;-68
2024/03/29 01:56:35;;;;;;;1999.90;999.90;;;12.00;99.90;;;;;;5035471;28;20065;-74
2024/03/29 01:59:04;;;;;;;1999.90;999.90;;;11.90;99.90;;;;;;5035446;28;20022;-68
2024/03/29 02:01:30;;;;;;;1999.90;999.90;;;11.90;99.90;;;;;;5035382;28;20403;-68
2024/03/29 02:03:56;;;;;;;1999.90;999.90;;;11.80;99.90;;;;;;5035330;28;20091;-68
2024/03/29 02:06:23;;;;;;;1999.90;999.90;;;11.90;99.90;;;;;;5035286;28;20473;-68
2024/03/29 02:08:55;;;;;;;1999.90;999.90;;;11.90;99.90;;;;;;5035222;28;20567;-68
2024/03/29 02:11:21;;;;;;;1999.90;999.90;;;11.80;99.90;;;;;;5035636;28;20033;-68
2024/03/29 02:13:49;;;;;;;1999.90;999.90;;;11.80;99.90;;;;;;5034395;28;20026;-68
2024/03/29 02:16:14;;;;;;;1999.90;999.90;;;11.80;99.90;;;;;;5035291;28;20033;-68
2024/03/29 02:18:40;;;;;;;1999.90;999.90;;;11.80;99.90;;;;;;5034636;28;20512;-68
2024/03/29 02:21:07;;;;;;;1999.90;999.90;;;11.80;99.90;;;;;;5034896;28;20037;-68
2024/03/29 02:23:36;;;;;;;1999.90;999.90;;;11.70;99.90;;;;;;5033411;28;20032;-68
2024/03/29 02:26:02;;;;;;;1999.90;999.90;;;11.70;99.90;;;;;;5034956;28;20041;-68
2024/03/29 02:28:27;;;;;;;1999.90;999.90;;;11.70;99.90;;;;;;5034902;28;20477;-68
2024/03/29 02:30:53;;;;;;;1999.90;999.90;;;11.70;99.90;;;;;;5034680;28;20026;-74
2024/03/29 02:33:21;;;;;;;1999.90;999.90;;;11.70;99.90;;;;;;5035020;28;20025;-74
2024/03/29 02:35:46;;;;;;;1999.90;999.90;;;11.70;99.90;;;;;;5034587;28;20029;-68
2024/03/29 02:38:12;;;;;;;1999.90;999.90;;;11.70;99.90;;;;;;5034496;28;20091;-68
2024/03/29 02:40:38;;;;;;;1999.90;999.90;;;11.60;99.90;;;;;;5034919;28;20109;-68
2024/03/29 02:43:03;;;;;;;1999.90;999.90;;;11.60;99.90;;;;;;5034467;28;20045;-68
2024/03/29 02:45:29;;;;;;;1999.90;999.90;;;11.70;99.90;;;;;;5034491;28;20488;-68
2024/03/29 02:47:55;;;;;;;1999.90;999.90;;;11.70;99.90;;;;;;5034767;28;20076;-68
2024/03/29 02:50:20;;;;;;;1999.90;999.90;;;11.70;99.90;;;;;;5034320;28;20037;-68
2024/03/29 02:52:46;;;;;;;1999.90;999.90;;;11.70;99.90;;;;;;5034037;28;20079;-68
2024/03/29 02:55:12;;;;;;;1999.90;999.90;;;11.70;99.90;;;;;;5034268;28;20029;-68
2024/03/29 02:57:38;;;;;;;1999.90;999.90;;;11.70;99.90;;;;;;5034379;28;20068;-74
2024/03/29 03:00:08;;;;;;;1999.90;999.90;;;11.70;99.90;;;;;;5034619;28;20037;-68
2024/03/29 03:02:40;;;;;;;1999.90;999.90;;;11.70;99.90;;;;;;5033967;28;20030;-68
2024/03/29 03:05:07;;;;;;;1999.90;999.90;;;11.70;99.90;;;;;;5034390;28;20036;-68
2024/03/29 03:13:01;;;;;;;1999.90;999.90;;;11.60;99.90;;;;;;5034387;28;20064;-68
2024/03/29 03:15:27;;;;;;;1999.90;999.90;;;11.60;99.90;;;;;;5034095;28;20049;-67
2024/03/29 03:17:52;;;;;;;1999.90;999.90;;;11.50;99.90;;;;;;5033895;28;20052;-67
2024/03/29 03:20:19;;;;;;;1999.90;999.90;;;11.30;99.90;;;;;;5033574;28;20029;-68
2024/03/29 03:22:45;;;;;;;1999.90;999.90;;;11.20;99.90;;;;;;5033509;28;20018;-67
2024/03/29 03:25:10;;;;;;;1999.90;999.90;;;11.10;99.90;;;;;;5033651;28;20499;-67
2024/03/29 03:27:36;;;;;;;1999.90;999.90;;;11.00;99.90;;;;;;5033818;28;20108;-67
2024/03/29 03:30:02;;;;;;;1999.90;999.90;;;11.00;99.90;;;;;;5033610;28;20458;-67
2024/03/29 03:32:27;;;;;;;1999.90;999.90;;;11.00;99.90;;;;;;5033622;28;20025;-67
2024/03/29 03:34:53;;;;;;;1999.90;999.90;;;10.90;99.90;;;;;;5033688;28;20021;-68
2024/03/29 03:37:18;;;;;;;1999.90;999.90;;;11.00;99.90;;;;;;5033592;28;20026;-68
2024/03/29 03:39:44;;;;;;;1999.90;999.90;;;11.00;99.90;;;;;;5033556;28;20033;-67
2024/03/29 03:42:09;;;;;;;1999.90;999.90;;;11.00;99.90;;;;;;5033431;28;20435;-67
2024/03/29 03:44:35;;;;;;;1999.90;999.90;;;11.00;99.90;;;;;;5033319;28;20108;-74
2024/03/29 03:47:01;;;;;;;1999.90;999.90;;;11.00;99.90;;;;;;5033474;28;20033;-67
2024/03/29 03:49:27;;;;;;;1999.90;999.90;;;11.00;99.90;;;;;;5033475;28;20040;-68
2024/03/29 03:51:52;;;;;;;1999.90;999.90;;;11.00;99.90;;;;;;5033594;28;20029;-68
2024/03/29 03:54:18;;;;;;;1999.90;999.90;;;11.10;99.90;;;;;;5033026;28;20021;-74
2024/03/29 03:56:43;;;;;;;1999.90;999.90;;;11.20;99.90;;;;;;5032918;28;20033;-67
2024/03/29 03:59:09;;;;;;;1999.90;999.90;;;11.20;99.90;;;;;;5033552;28;20155;-67
2024/03/29 04:01:35;;;;;;;1999.90;999.90;;;11.30;99.90;;;;;;5033470;28;20500;-67
2024/03/29 04:04:01;;;;;;;1999.90;999.90;;;11.40;99.90;;;;;;5032224;28;20107;-74
2024/03/29 04:06:26;;;;;;;1999.90;999.90;;;11.50;99.90;;;;;;5032869;28;20088;-67
2024/03/29 04:08:52;;;;;;;1999.90;999.90;;;11.50;99.90;;;;;;5032982;28;20477;-67
2024/03/29 04:11:18;;;;;;;1999.90;999.90;;;11.50;99.90;;;;;;5033045;28;20022;-68
2024/03/29 04:13:45;;;;;;;1999.90;999.90;;;11.60;99.90;;;;;;5032427;28;20080;-67
2024/03/29 04:16:11;;;;;;;1999.90;999.90;;;11.60;99.90;;;;;;5033193;28;20033;-67
2024/03/29 04:18:37;;;;;;;1999.90;999.90;;;11.60;99.90;;;;;;5032625;28;20075;-67
2024/03/29 04:21:03;;;;;;;1999.90;999.90;;;11.70;99.90;;;;;;5032536;28;20518;-67
2024/03/29 04:23:29;;;;;;;1999.90;999.90;;;11.60;99.90;;;;;;5032299;28;20119;-67
2024/03/29 04:25:56;;;;;;;1999.90;999.90;;;11.70;99.90;;;;;;5032760;28;20033;-67
2024/03/29 04:28:22;;;;;;;1999.90;999.90;;;11.60;99.90;;;;;;5032954;28;20029;-67
2024/03/29 04:30:55;;;;;;;1999.90;999.90;;;11.60;99.90;;;;;;5032697;28;20096;-74
2024/03/29 04:33:21;;;;;;;1999.90;999.90;;;11.60;99.90;;;;;;5032476;28;20048;-67
2024/03/29 04:36:01;;;;;;;1999.90;999.90;;;11.60;99.90;;;;;;5032782;28;20477;-67
2024/03/29 04:38:27;;;;;;;1999.90;999.90;;;11.50;99.90;;;;;;5032664;28;20032;-67
2024/03/29 04:40:54;;;;;;;1999.90;999.90;;;11.50;99.90;;;;;;5032474;28;20018;-67
2024/03/29 04:43:22;;;;;;;1999.90;999.90;;;11.50;99.90;;;;;;5032618;28;20570;-67
2024/03/29 04:45:48;;;;;;;1999.90;999.90;;;11.40;99.90;;;;;;5032532;28;20026;-67
2024/03/29 04:48:15;;;;;;;1999.90;999.90;;;11.40;99.90;;;;;;5032502;28;20488;-68
2024/03/29 04:50:40;;;;;;;1999.90;999.90;;;11.30;99.90;;;;;;5032468;28;20523;-67
2024/03/29 04:53:08;;;;;;;1999.90;999.90;;;11.30;99.90;;;;;;5032796;28;20025;-67
2024/03/29 04:55:34;;;;;;;1999.90;999.90;;;11.30;99.90;;;;;;5032600;28;20025;-67
2024/03/29 04:58:00;;;;;;;1999.90;999.90;;;11.20;99.90;;;;;;5032575;28;20101;-67
2024/03/29 05:00:26;;;;;;;1999.90;999.90;;;11.20;99.90;;;;;;5032276;28;20083;-67
2024/03/29 05:02:52;;;;;;;1999.90;999.90;;;11.10;99.90;;;;;;5032493;28;20034;-67
2024/03/29 05:05:17;;;;;;;1999.90;999.90;;;11.10;99.90;;;;;;5031898;28;20026;-67
2024/03/29 05:07:43;;;;;;;1999.90;999.90;;;11.10;99.90;;;;;;5032295;28;20041;-74
2024/03/29 05:10:09;;;;;;;1999.90;999.90;;;11.10;99.90;;;;;;5032169;28;20025;-67
2024/03/29 05:12:36;;;;;;;1999.90;999.90;;;11.10;99.90;;;;;;5032441;28;20053;-67
2024/03/29 05:15:02;;;;;;;1999.90;999.90;;;11.10;99.90;;;;;;5032227;28;20068;-67
2024/03/29 05:17:27;;;;;;;1999.90;999.90;;;11.10;99.90;;;;;;5032128;28;20033;-67
2024/03/29 05:19:54;;;;;;;1999.90;999.90;;;11.20;99.90;;;;;;5031947;28;20465;-67
2024/03/29 05:22:19;;;;;;;1999.90;999.90;;;11.10;99.90;;;;;;5031939;28;20484;-68
2024/03/29 05:24:45;;;;;;;1999.90;999.90;;;11.10;99.90;;;;;;5033898;28;20072;-67
2024/03/29 05:27:14;;;;;;;1999.90;999.90;;;11.20;99.90;;;;;;5036275;28;20116;-67
2024/03/29 05:29:40;;;;;;;1999.90;999.90;;;11.20;99.90;;;;;;5035835;28;20029;-67
2024/03/29 05:32:06;;;;;;;1999.90;999.90;;;11.20;99.90;;;;;;5035909;28;20026;-68
2024/03/29 05:34:33;;;;;;;1999.90;999.90;;;11.20;99.90;;;;;;5035811;28;20449;-67
2024/03/29 05:36:58;;;;;;;1999.90;999.90;;;11.30;99.90;;;;;;5035725;28;20060;-67
2024/03/29 05:39:24;;;;;;;1999.90;999.90;;;11.30;99.90;;;;;;5035931;28;20067;-68
2024/03/29 05:41:49;;;;;;;1999.90;999.90;;;11.30;99.90;;;;;;5035758;28;20029;-67
2024/03/29 05:44:15;;;;;;;1999.90;999.90;;;11.30;99.90;;;;;;5035788;28;20493;-67
2024/03/29 05:46:41;;;;;;;1999.90;999.90;;;11.30;99.90;;;;;;5035395;28;20045;-67
2024/03/29 05:49:07;;;;;;;1999.90;999.90;;;11.40;99.90;;;;;;5035670;28;20053;-74
2024/03/29 05:51:35;;;;;;;1999.90;999.90;;;11.30;99.90;;;;;;5035602;28;20396;-68
2024/03/29 05:54:03;;;;;;;1999.90;999.90;;;11.30;99.90;;;;;;5035508;28;20021;-68
2024/03/29 05:56:29;;;;;;;1999.90;999.90;;;11.30;99.90;;;;;;5035470;28;20036;-67
2024/03/29 05:58:55;;;;;;;1999.90;999.90;;;11.30;99.90;;;;;;5035573;28;20485;-68
2024/03/29 06:01:21;;;;;;;1999.90;999.90;;;11.30;99.90;;;;;;5035343;28;20403;-68
2024/03/29 06:03:47;;;;;;;1999.90;999.90;;;11.30;99.90;;;;;;5035650;28;20076;-68
2024/03/29 06:06:17;;;;;;;1999.90;999.90;;;11.30;99.90;;;;;;5035070;28;20033;-68
2024/03/29 06:08:45;;;;;;;1999.90;999.90;;;11.30;99.90;;;;;;5035128;28;20029;-68
2024/03/29 06:11:11;;;;;;;1999.90;999.90;;;11.30;99.90;;;;;;5035024;28;20447;-68
2024/03/29 06:19:08;;;;;;;1999.90;999.90;;;11.40;99.90;;;;;;5035043;28;20477;-68
2024/03/29 06:21:40;;;;;;;1999.90;999.90;;;11.40;99.90;;;;;;5034970;28;20116;-68
2024/03/29 06:24:08;;;;;;;1999.90;999.90;;;11.40;99.90;;;;;;5033431;28;20069;-68
2024/03/29 06:26:34;;;;;;;1999.90;999.90;;;11.40;99.90;;;;;;5034997;28;20033;-74
2024/03/29 06:29:01;;;;;;;1999.90;999.90;;;11.50;99.90;;;;;;5034178;28;20101;-68
2024/03/29 06:31:26;;;;;;;1999.90;999.90;;;11.50;99.90;;;;;;5032284;28;20473;-74
2024/03/29 06:33:53;;;;;;;1999.90;999.90;;;11.50;99.90;;;;;;5033217;28;20100;-68
2024/03/29 06:36:19;;;;;;;1999.90;999.90;;;11.50;99.90;;;;;;5041788;28;20041;-73
2024/03/29 06:38:44;;;;;;;1999.90;999.90;;;11.50;99.90;;;;;;5034513;28;20025;-74
2024/03/29 06:41:10;;;;;;;1999.90;999.90;;;11.50;99.90;;;;;;5034223;28;20416;-74
2024/03/29 06:43:36;;;;;;;1999.90;999.90;;;11.50;99.90;;;;;;5033876;28;20043;-74
2024/03/29 06:46:03;;;;;;;1999.90;999.90;;;11.50;99.90;;;;;;5034158;28;20036;-68
2024/03/29 06:48:31;;;;;;;1999.90;999.90;;;11.50;99.90;;;;;;5033633;28;20017;-68
2024/03/29 06:50:57;;;;;;;1999.90;999.90;;;11.50;99.90;;;;;;5034100;28;20476;-68
2024/03/29 06:53:23;;;;;;;1999.90;999.90;;;11.50;99.90;;;;;;5034090;28;20024;-68
2024/03/29 06:55:49;;;;;;;1999.90;999.90;;;11.60;99.90;;;;;;5033492;28;20093;-68
2024/03/29 06:58:15;;;;;;;1999.90;999.90;;;11.60;99.90;;;;;;5034261;28;20392;-68
2024/03/29 07:00:40;;;;;;;1999.90;999.90;;;11.60;99.90;;;;;;5033856;28;20030;-74
2024/03/29 07:03:07;;;;;;;1999.90;999.90;;;11.60;99.90;;;;;;5032534;28;20107;-70
2024/03/29 07:05:32;;;;;;;1999.90;999.90;;;11.70;99.90;;;;;;5033650;28;20480;-68
2024/03/29 07:07:59;;;;;;;1999.90;999.90;;;11.70;99.90;;;;;;5030824;28;20025;-73
2024/03/29 07:10:25;;;;;;;1999.90;999.90;;;11.70;99.90;;;;;;5030333;28;20032;-74
2024/03/29 07:12:51;;;;;;;1999.90;999.90;;;11.80;99.90;;;;;;5032741;28;20021;-74
2024/03/29 07:15:17;;;;;;;1999.90;999.90;;;11.80;99.90;;;;;;5033326;28;20047;-68
2024/03/29 07:17:43;;;;;;;1999.90;999.90;;;11.80;99.90;;;;;;5033110;28;20043;-74
2024/03/29 07:20:09;;;;;;;1999.90;999.90;;;11.90;99.90;;;;;;5033080;28;20025;-68
2024/03/29 07:22:35;;;;;;;1999.90;999.90;;;11.90;99.90;;;;;;5032754;28;20052;-67
2024/03/29 07:25:01;;;;;;;1999.90;999.90;;;12.00;99.90;;;;;;5032058;28;20492;-73
2024/03/29 07:27:29;;;;;;;1999.90;999.90;;;12.00;99.90;;;;;;5029250;28;20032;-72
2024/03/29 07:29:55;;;;;;;1999.90;999.90;;;12.00;99.90;;;;;;5030214;28;20105;-73
2024/03/29 07:32:20;;;;;;;1999.90;999.90;;;12.00;99.90;;;;;;5025548;28;20172;-74
2024/03/29 07:34:46;;;;;;;1999.90;999.90;;;12.00;99.90;;;;;;5034752;28;20033;-73
2024/03/29 07:37:14;;;;;;;1999.90;999.90;;;12.10;99.90;;;;;;5032546;28;20036;-66
2024/03/29 07:39:41;;;;;;;1999.90;999.90;;;12.10;99.90;;;;;;5032943;28;20571;-73
2024/03/29 07:42:07;;;;;;;1999.90;999.90;;;12.20;99.90;;;;;;5033157;28;20036;-73
2024/03/29 07:44:33;;;;;;;1999.90;999.90;;;12.20;99.90;;;;;;5031089;28;20033;-72
2024/03/29 07:46:59;;;;;;;1999.90;999.90;;;12.20;99.90;;;;;;5031513;28;20021;-67
2024/03/29 07:49:24;;;;;;;1999.90;999.90;;;12.20;99.90;;;;;;5030694;28;20029;-67
2024/03/29 07:51:50;;;;;;;1999.90;999.90;;;12.30;99.90;;;;;;5031684;28;20039;-73
2024/03/29 07:54:15;;;;;;;1999.90;999.90;;;12.40;99.90;;;;;;5031042;28;20033;-72
2024/03/29 07:56:41;;;;;;;1999.90;999.90;;;12.40;99.90;;;;;;5030745;28;20029;-73
2024/03/29 07:59:07;;;;;;;1999.90;999.90;;;12.60;99.90;;;;;;5031361;28;20528;-73
2024/03/29 08:01:32;;;;;;;1999.90;999.90;;;12.70;99.90;;;;;;5030937;28;20034;-68
2024/03/29 08:03:58;;;;;;;1999.90;999.90;;;12.70;99.90;;;;;;5030657;28;20030;-72
2024/03/29 08:06:26;;;;;;;1999.90;999.90;;;12.90;99.90;;;;;;5030826;28;20057;-73
2024/03/29 08:08:52;;;;;;;1999.90;999.90;;;12.90;99.90;;;;;;5030397;28;20033;-67
2024/03/29 08:11:18;;;;;;;1999.90;999.90;;;12.90;99.90;;;;;;5031144;28;20021;-67
2024/03/29 08:13:43;;;;;;;1999.90;999.90;;;12.90;99.90;;;;;;5030244;28;20026;-67
2024/03/29 08:16:10;;;;;;;1999.90;999.90;;;13.00;99.90;;;;;;5031460;28;20162;-66
2024/03/29 08:18:36;;;;;;;1999.90;999.90;;;13.10;99.90;;;;;;5031009;28;20074;-67
2024/03/29 08:21:03;;;;;;;1999.90;999.90;;;13.00;99.90;;;;;;5030729;28;20041;-67
2024/03/29 08:23:29;;;;;;;1999.90;999.90;;;12.90;99.90;;;;;;5030340;28;20044;-67
2024/03/29 08:25:55;;;;;;;1999.90;999.90;;;13.00;99.90;;;;;;5028704;28;20030;-68
2024/03/29 08:28:24;;;;;;;1999.90;999.90;;;13.10;99.90;;;;;;5030390;28;20041;-74
2024/03/29 08:31:00;;;;;;;1999.90;999.90;;;13.00;99.90;;;;;;5043843;28;20029;-73
2024/03/29 08:33:26;;;;;;;1999.90;999.90;;;13.10;99.90;;;;;;5046614;28;20021;-73
2024/03/29 08:35:52;;;;;;;1999.90;999.90;;;13.10;99.90;;;;;;5030185;28;20049;-68
2024/03/29 08:38:18;;;;;;;1999.90;999.90;;;13.30;99.90;;;;;;5030297;28;20029;-73
2024/03/29 08:40:46;;;;;;;1999.90;999.90;;;13.40;99.90;;;;;;5029883;28;20025;-72
2024/03/29 08:43:12;;;;;;;1999.90;999.90;;;13.30;99.90;;;;;;5026830;28;20031;-72
2024/03/29 08:45:40;;;;;;;1999.90;999.90;;;13.50;99.90;;;;;;5029046;28;20108;-74
2024/03/29 08:48:08;;;;;;;1999.90;999.90;;;13.40;99.90;;;;;;5030105;28;20029;-69
2024/03/29 08:50:35;;;;;;;1999.90;999.90;;;13.20;99.90;;;;;;5029630;28;20453;-68
2024/03/29 08:53:00;;;;;;;1999.90;999.90;;;13.10;99.90;;;;;;5030127;28;20036;-68
2024/03/29 08:55:26;;;;;;;1999.90;999.90;;;13.10;99.90;;;;;;5029769;28;20030;-73
2024/03/29 08:57:51;;;;;;;1999.90;999.90;;;13.00;99.90;;;;;;5029840;28;20043;-74
2024/03/29 09:00:17;;;;;;;1999.90;999.90;;;13.00;99.90;;;;;;5027100;28;20038;-74
2024/03/29 09:02:43;;;;;;;1999.90;999.90;;;12.90;99.90;;;;;;5034934;28;20037;-69
2024/03/29 09:05:08;;;;;;;1999.90;999.90;;;12.70;99.90;;;;;;5034433;28;20026;-68
2024/03/29 09:07:35;;;;;;;1999.90;999.90;;;12.70;99.90;;;;;;5031180;28;20033;-69
2024/03/29 09:10:00;;;;;;;1999.90;999.90;;;12.80;99.90;;;;;;5032981;28;20370;-73
2024/03/29 09:12:26;;;;;;;1999.90;999.90;;;13.00;99.90;;;;;;5030592;28;20124;-74
2024/03/29 09:14:52;;;;;;;1999.90;999.90;;;13.20;99.90;;;;;;5037318;28;20100;-69
2024/03/29 09:17:19;;;;;;;1999.90;999.90;;;13.30;99.90;;;;;;5035074;28;20044;-69
2024/03/29 09:19:44;;;;;;;1999.90;999.90;;;13.30;99.90;;;;;;5034003;28;20531;-74
2024/03/29 09:22:10;;;;;;;1999.90;999.90;;;14.00;99.90;;;;;;5034440;28;20036;-74
2024/03/29 09:24:35;;;;;;;1999.90;999.90;;;14.00;99.90;;;;;;5034073;28;20034;-75
2024/03/29 09:27:01;;;;;;;1999.90;999.90;;;14.50;99.90;;;;;;5030347;28;20045;-69
2024/03/29 09:29:27;;;;;;;1999.90;999.90;;;14.50;99.90;;;;;;5032333;28;20057;-72
2024/03/29 09:31:52;;;;;;;1999.90;999.90;;;14.20;99.90;;;;;;5029378;28;20484;-74
2024/03/29 09:34:18;;;;;;;1999.90;999.90;;;13.80;99.90;;;;;;5031888;28;20029;-69
2024/03/29 09:36:43;;;;;;;1999.90;999.90;;;13.80;99.90;;;;;;5033237;28;20052;-75
2024/03/29 09:39:09;;;;;;;1999.90;999.90;;;14.00;99.90;;;;;;5034098;28;20057;-75
2024/03/29 09:41:37;;;;;;;1999.90;999.90;;;14.30;99.90;;;;;;5033322;28;20037;-75
2024/03/29 09:44:05;;;;;;;1999.90;999.90;;;14.20;99.90;;;;;;5032201;28;20552;-69
2024/03/29 09:46:33;;;;;;;1999.90;999.90;;;14.10;99.90;;;;;;5026371;28;20128;-69
2024/03/29 09:48:59;;;;;;;1999.90;999.90;;;14.60;99.90;;;;;;5029560;28;20036;-74
2024/03/29 09:51:27;;;;;;;1999.90;999.90;;;14.30;99.90;;;;;;5036298;28;20033;-74
2024/03/29 09:53:53;;;;;;;1999.90;999.90;;;14.40;99.90;;;;;;5035812;28;20036;-68
2024/03/29 09:56:20;;;;;;;1999.90;999.90;;;14.40;99.90;;;;;;5033070;28;20040;-69
2024/03/29 09:58:46;;;;;;;1999.90;999.90;;;14.40;99.90;;;;;;5033852;28;20028;-75
2024/03/29 10:01:11;;;;;;;1999.90;999.90;;;14.60;99.90;;;;;;5032665;28;20034;-74
2024/03/29 10:03:42;;;;;;;1999.90;999.90;;;14.70;99.90;;;;;;5033454;28;20068;-74
2024/03/29 10:06:08;;;;;;;1999.90;999.90;;;14.40;99.90;;;;;;5040331;28;20167;-74
2024/03/29 10:08:34;;;;;;;1999.90;999.90;;;14.10;99.90;;;;;;5035472;28;20045;-68
2024/03/29 10:11:00;;;;;;;1999.90;999.90;;;14.10;99.90;;;;;;5033430;28;20392;-69
2024/03/29 10:13:26;;;;;;;1999.90;999.90;;;14.20;99.90;;;;;;5047816;28;20033;-72
2024/03/29 10:15:55;;;;;;;1999.90;999.90;;;14.20;99.90;;;;;;5035261;28;20052;-74
2024/03/29 10:18:25;;;;;;;1999.90;999.90;;;14.10;99.90;;;;;;5043639;28;20045;-68
2024/03/29 10:21:03;;;;;;;1999.90;999.90;;;14.40;99.90;;;;;;5044681;28;20140;-73
2024/03/29 10:23:29;;;;;;;1999.90;999.90;;;14.30;99.90;;;;;;5039539;28;20510;-73
2024/03/29 10:25:54;;;;;;;1999.90;999.90;;;14.30;99.90;;;;;;5036893;28;20044;-74
2024/03/29 10:28:20;;;;;;;1999.90;999.90;;;14.40;99.90;;;;;;5042096;28;20225;-74
2024/03/29 10:30:46;;;;;;;1999.90;999.90;;;14.70;99.90;;;;;;5041627;28;20374;-69
2024/03/29 10:33:13;;;;;;;1999.90;999.90;;;14.90;99.90;;;;;;5029994;28;20083;-68
2024/03/29 10:35:42;;;;;;;1999.90;999.90;;;15.10;99.90;;;;;;5037794;28;20029;-75
2024/03/29 10:38:09;;;;;;;1999.90;999.90;;;15.30;99.90;;;;;;5043920;28;20427;-69
2024/03/29 10:40:44;;;;;;;1999.90;999.90;;;15.30;99.90;;;;;;5044386;28;20040;-74
2024/03/29 10:43:12;;;;;;;1999.90;999.90;;;15.30;99.90;;;;;;5034217;28;20035;-74
2024/03/29 10:45:38;;;;;;;1999.90;999.90;;;15.30;99.90;;;;;;5036714;28;20033;-74
2024/03/29 10:48:07;;;;;;;1999.90;999.90;;;15.10;99.90;;;;;;5043138;28;20032;-68
2024/03/29 10:50:36;;;;;;;1999.90;999.90;;;15.10;99.90;;;;;;5044563;28;20079;-68
2024/03/29 10:53:02;;;;;;;1999.90;999.90;;;14.90;99.90;;;;;;5036144;28;20079;-73
2024/03/29 10:55:33;;;;;;;1999.90;999.90;;;14.90;99.90;;;;;;5036502;28;20025;-72
2024/03/29 10:58:00;;;;;;;1999.90;999.90;;;14.70;99.90;;;;;;5035921;28;20039;-73
2024/03/29 11:00:29;;;;;;;1999.90;999.90;;;15.00;99.90;;;;;;5045492;28;20039;-68
2024/03/29 11:03:32;;;;;;;1999.90;999.90;;;14.90;99.90;;;;;;5035012;28;20033;-73
2024/03/29 11:06:02;;;;;;;1999.90;999.90;;;15.20;99.90;;;;;;5032315;28;20373;-73
2024/03/29 11:08:37;;;;;;;1999.90;999.90;;;15.10;99.90;;;;;;5045188;28;20032;-69
2024/03/29 11:11:04;;;;;;;1999.90;999.90;;;14.70;99.90;;;;;;5047691;28;20029;-69
2024/03/29 11:13:48;;;;;;;1999.90;999.90;;;14.50;99.90;;;;;;5028018;28;20035;-68
2024/03/29 11:16:19;;;;;;;1999.90;999.90;;;14.40;99.90;;;;;;5041609;28;20029;-68
2024/03/29 11:18:47;;;;;;;1999.90;999.90;;;14.50;99.90;;;;;;5042950;28;20411;-68
2024/03/29 11:21:18;;;;;;;1999.90;999.90;;;14.40;99.90;;;;;;5043968;28;20065;-69
2024/03/29 11:23:48;;;;;;;1999.90;999.90;;;14.20;99.90;;;;;;5041430;28;20044;-68
2024/03/29 11:26:15;;;;;;;1999.90;999.90;;;14.50;99.90;;;;;;5041526;28;20385;-73
2024/03/29 11:28:48;;;;;;;1999.90;999.90;;;14.40;99.90;;;;;;5040575;28;20097;-73
2024/03/29 11:31:15;;;;;;;1999.90;999.90;;;14.50;99.90;;;;;;5036195;28;20127;-68
2024/03/29 11:33:44;;;;;;;1999.90;999.90;;;14.70;99.90;;;;;;5036352;28;20112;-73
2024/03/29 11:36:23;;;;;;;1999.90;999.90;;;14.80;99.90;;;;;;5034049;28;20723;-73
2024/03/29 11:38:53;;;;;;;1999.90;999.90;;;14.90;99.90;;;;;;5045941;28;20036;-73
2024/03/29 11:41:23;;;;;;;1999.90;999.90;;;14.80;99.90;;;;;;5034494;28;20432;-68
2024/03/29 11:43:50;;;;;;;1999.90;999.90;;;14.70;99.90;;;;;;5043505;28;20033;-68
2024/03/29 11:46:17;;;;;;;1999.90;999.90;;;14.90;99.90;;;;;;5040170;28;20033;-73
2024/03/29 11:48:44;;;;;;;1999.90;999.90;;;14.80;99.90;;;;;;5037845;28;20021;-74
2024/03/29 11:51:14;;;;;;;1999.90;999.90;;;14.70;99.90;;;;;;5047526;28;20154;-68
2024/03/29 11:53:40;;;;;;;1999.90;999.90;;;14.30;99.90;;;;;;5036320;28;20617;-68
2024/03/29 11:56:06;;;;;;;1999.90;999.90;;;14.20;99.90;;;;;;5042682;28;20035;-73
2024/03/29 11:58:33;;;;;;;1999.90;999.90;;;14.30;99.90;;;;;;5043097;28;20175;-73
2024/03/29 12:01:00;;;;;;;1999.90;999.90;;;14.30;99.90;;;;;;5035739;28;20480;-73
2024/03/29 12:03:27;;;;;;;1999.90;999.90;;;14.40;99.90;;;;;;5048923;28;20040;-68
2024/03/29 12:05:54;;;;;;;1999.90;999.90;;;14.20;99.90;;;;;;5032986;28;20374;-73
2024/03/29 12:08:21;;;;;;;1999.90;999.90;;;14.10;99.90;;;;;;5033951;28;20018;-68